Time;durP1;ratioP1;P1;durP2;ratioP2;P2;SDS_P1;SDS_P2;PMS_P1;PMS_P2;Temp;Humidity;BMP_temperature;BMP_pressure;BME280_temperature;BME280_humidity;BME280_pressure;Samples;Min_cycle;Max_cycle;Signal;HPM_P1;HPM_P2
2021/12/05 00:21:58;;;;;;;2.00;1.08;;;5.20;84.50;;;;;;5003649;28;20061;-68
2021/12/05 00:24:29;;;;;;;2.50;1.02;;;5.20;84.50;;;;;;5022482;28;20064;-66
2021/12/05 00:27:03;;;;;;;2.95;1.02;;;5.20;84.40;;;;;;5022104;28;20046;-66
2021/12/05 00:29:37;;;;;;;4.47;1.20;;;5.20;84.30;;;;;;5020841;28;20065;-66
2021/12/05 00:32:11;;;;;;;4.03;1.08;;;5.20;84.40;;;;;;5022885;28;20056;-67
2021/12/05 00:40:56;;;;;;;4.15;0.98;;;5.20;84.20;;;;;;5023746;28;20042;-67
2021/12/05 00:46:28;;;;;;;3.83;1.08;;;5.10;84.30;;;;;;4999213;28;20061;-67
2021/12/05 00:49:16;;;;;;;5.85;1.50;;;5.10;84.30;;;;;;5022367;28;20160;-68
2021/12/05 00:52:20;;;;;;;3.17;1.08;;;5.10;84.30;;;;;;5006354;28;20057;-68
2021/12/05 01:06:49;;;;;;;1.27;0.80;;;5.20;84.20;;;;;;4989198;28;20045;-66
2021/12/05 01:09:26;;;;;;;2.25;0.93;;;5.20;84.20;;;;;;5040996;28;20060;-67
2021/12/05 01:14:53;;;;;;;2.40;1.05;;;5.10;84.10;;;;;;5000468;28;20756;-67
2021/12/05 01:17:27;;;;;;;3.03;0.90;;;5.10;84.00;;;;;;5020444;28;20063;-67
2021/12/05 01:19:55;;;;;;;3.55;0.82;;;5.10;84.10;;;;;;5018540;28;20505;-66
2021/12/05 01:22:23;;;;;;;7.13;1.40;;;5.10;84.00;;;;;;5035377;28;20050;-67
2021/12/05 01:25:01;;;;;;;3.35;1.00;;;5.10;83.80;;;;;;5018925;28;20463;-66
2021/12/05 01:27:38;;;;;;;1.98;0.77;;;5.10;83.80;;;;;;5021995;28;20058;-66
2021/12/05 01:30:23;;;;;;;2.15;0.77;;;5.10;83.80;;;;;;5022022;28;20049;-65
2021/12/05 01:32:58;;;;;;;3.28;0.75;;;5.10;83.80;;;;;;5010958;28;20041;-66
2021/12/05 01:35:41;;;;;;;3.20;0.68;;;5.20;83.70;;;;;;5019788;28;20570;-67
2021/12/05 01:38:13;;;;;;;5.95;1.10;;;5.10;83.60;;;;;;5011812;28;20053;-67
2021/12/05 01:41:02;;;;;;;1.45;0.75;;;5.10;83.60;;;;;;5021272;28;20056;-68
2021/12/05 01:49:20;;;;;;;1.52;0.77;;;5.10;83.50;;;;;;5016431;28;20415;-67
2021/12/05 01:52:12;;;;;;;2.97;0.93;;;5.10;83.70;;;;;;5020774;28;20052;-66
2021/12/05 02:01:02;;;;;;;1.38;0.63;;;5.10;83.50;;;;;;5006614;28;20412;-67
2021/12/05 02:09:27;;;;;;;1.73;0.80;;;5.10;83.60;;;;;;5034688;28;20049;-66
2021/12/05 02:12:13;;;;;;;2.97;0.88;;;5.00;83.50;;;;;;5018839;28;20775;-67
2021/12/05 02:31:43;;;;;;;4.43;0.93;;;5.10;83.50;;;;;;5012093;28;20545;-66
2021/12/05 02:37:10;;;;;;;2.88;0.73;;;5.00;83.50;;;;;;5019660;28;20050;-67
2021/12/05 02:39:46;;;;;;;2.60;0.80;;;5.00;83.50;;;;;;5023838;28;20054;-66
2021/12/05 02:42:21;;;;;;;1.45;0.50;;;5.10;83.50;;;;;;5017001;28;20052;-67
2021/12/05 02:44:48;;;;;;;6.80;1.00;;;5.10;83.60;;;;;;5036830;28;20045;-68
2021/12/05 02:47:18;;;;;;;1.70;0.80;;;5.10;83.60;;;;;;5015328;28;20132;-66
2021/12/05 02:49:48;;;;;;;0.55;0.40;;;5.10;83.50;;;;;;5021955;28;20050;-66
2021/12/05 02:52:23;;;;;;;1.77;0.45;;;5.10;83.50;;;;;;5025248;28;20129;-66
2021/12/05 02:54:54;;;;;;;4.05;0.55;;;5.10;83.60;;;;;;5036680;28;20053;-67
2021/12/05 02:57:34;;;;;;;;;;;5.00;83.60;;;;;;5020681;28;20124;-68
2021/12/05 03:00:08;;;;;;;3.70;0.70;;;5.10;83.70;;;;;;5024552;28;19932;-67
2021/12/05 03:02:40;;;;;;;0.88;0.40;;;5.10;83.70;;;;;;5023220;28;20132;-68
2021/12/05 03:05:13;;;;;;;1.38;0.70;;;5.10;83.70;;;;;;5021868;28;20060;-67
2021/12/05 03:07:49;;;;;;;1.05;0.55;;;5.10;83.70;;;;;;5021179;28;20041;-66
2021/12/05 03:10:20;;;;;;;8.70;1.15;;;5.10;83.70;;;;;;5034418;28;20049;-67
2021/12/05 03:12:52;;;;;;;1.23;0.60;;;5.10;83.70;;;;;;5022004;28;20479;-67
2021/12/05 03:15:26;;;;;;;1.38;0.38;;;5.10;83.70;;;;;;5021818;28;20173;-66
2021/12/05 03:17:59;;;;;;;2.22;1.25;;;5.10;83.80;;;;;;5015667;28;20060;-67
2021/12/05 03:20:26;;;;;;;2.80;0.70;;;5.10;83.80;;;;;;5038863;28;20415;-66
2021/12/05 03:22:55;;;;;;;2.53;0.75;;;5.10;83.80;;;;;;5023623;28;20779;-67
2021/12/05 03:25:23;;;;;;;1.38;0.47;;;5.00;83.80;;;;;;5034851;28;20056;-68
2021/12/05 03:27:50;;;;;;;2.85;0.90;;;5.10;83.80;;;;;;5015345;28;20243;-67
2021/12/05 03:30:21;;;;;;;5.95;0.70;;;5.10;83.90;;;;;;5036239;28;20862;-67
2021/12/05 03:32:50;;;;;;;3.70;0.60;;;5.10;83.90;;;;;;5014847;28;20061;-67
2021/12/05 03:35:21;;;;;;;4.30;0.60;;;5.10;84.00;;;;;;5015104;28;20046;-66
2021/12/05 03:37:49;;;;;;;4.07;0.63;;;5.10;84.00;;;;;;5035120;28;20509;-68
2021/12/05 03:40:22;;;;;;;3.17;0.88;;;5.10;84.10;;;;;;5023868;28;20050;-67
2021/12/05 03:42:53;;;;;;;2.13;0.73;;;5.10;84.10;;;;;;5022092;28;20458;-67
2021/12/05 03:45:27;;;;;;;6.28;0.80;;;5.10;84.00;;;;;;5017505;28;20505;-68
2021/12/05 03:47:56;;;;;;;1.27;0.47;;;5.10;84.00;;;;;;5022339;28;20380;-68
2021/12/05 03:50:26;;;;;;;2.30;0.55;;;5.10;83.90;;;;;;5032302;28;20053;-66
2021/12/05 03:52:53;;;;;;;1.35;0.50;;;5.20;83.80;;;;;;5012235;28;20338;-68
2021/12/05 03:55:22;;;;;;;3.67;0.70;;;5.20;83.90;;;;;;5027760;28;20454;-68
2021/12/05 03:57:49;;;;;;;2.63;0.52;;;5.20;83.90;;;;;;5018955;28;20050;-67
2021/12/05 04:00:20;;;;;;;0.40;0.30;;;5.10;83.90;;;;;;5015549;28;20135;-69
2021/12/05 04:02:53;;;;;;;1.50;0.50;;;5.10;83.90;;;;;;5029031;28;20075;-68
2021/12/05 04:05:25;;;;;;;2.47;0.80;;;5.20;83.90;;;;;;5028760;28;20060;-67
2021/12/05 04:07:53;;;;;;;1.30;0.60;;;5.20;83.80;;;;;;5031547;28;20052;-67
2021/12/05 04:10:25;;;;;;;2.85;1.02;;;5.20;83.80;;;;;;5013922;28;20084;-68
2021/12/05 04:12:54;;;;;;;3.08;0.55;;;5.20;83.80;;;;;;5037441;28;20057;-68
2021/12/05 04:15:23;;;;;;;4.97;0.77;;;5.20;83.80;;;;;;5039349;28;20132;-67
2021/12/05 04:17:51;;;;;;;2.70;0.90;;;5.20;83.80;;;;;;5019593;28;20073;-67
2021/12/05 04:20:20;;;;;;;1.98;1.05;;;5.20;83.90;;;;;;5012444;28;20658;-66
2021/12/05 04:22:49;;;;;;;2.30;0.73;;;5.20;83.90;;;;;;5021717;28;20057;-67
2021/12/05 04:25:18;;;;;;;3.42;0.70;;;5.20;83.80;;;;;;5024098;28;20049;-67
2021/12/05 04:27:49;;;;;;;2.97;0.63;;;5.10;83.80;;;;;;5033504;28;20048;-67
2021/12/05 04:30:19;;;;;;;1.00;0.50;;;5.10;83.80;;;;;;5029862;28;20053;-67
2021/12/05 04:32:47;;;;;;;5.57;0.70;;;5.10;83.80;;;;;;5026225;28;20037;-67
2021/12/05 04:35:14;;;;;;;4.88;1.05;;;5.10;83.80;;;;;;5020782;28;20120;-67
2021/12/05 04:37:41;;;;;;;1.95;0.73;;;5.10;83.80;;;;;;5033247;28;20080;-67
2021/12/05 04:40:10;;;;;;;2.20;0.80;;;5.10;83.70;;;;;;5011363;28;20715;-66
2021/12/05 04:42:38;;;;;;;2.53;0.50;;;5.10;83.70;;;;;;5015707;28;20120;-67
2021/12/05 04:45:12;;;;;;;1.30;0.57;;;5.00;83.60;;;;;;5015037;28;22049;-67
2021/12/05 04:47:39;;;;;;;3.63;1.17;;;5.00;83.60;;;;;;5005079;28;20048;-68
2021/12/05 04:50:08;;;;;;;3.67;1.05;;;5.00;83.60;;;;;;5017866;28;20053;-66
2021/12/05 04:52:35;;;;;;;7.18;1.30;;;5.00;83.50;;;;;;5028413;28;20418;-67
2021/12/05 04:55:03;;;;;;;2.13;0.47;;;5.00;83.60;;;;;;5023997;28;20061;-66
2021/12/05 04:57:31;;;;;;;2.22;0.90;;;5.00;83.60;;;;;;5021179;28;20052;-69
2021/12/05 04:59:58;;;;;;;3.50;0.60;;;5.00;83.50;;;;;;5011903;28;20158;-66
2021/12/05 05:02:27;;;;;;;2.97;0.65;;;4.90;83.50;;;;;;5011466;28;20049;-67
2021/12/05 05:04:54;;;;;;;1.80;0.70;;;4.90;83.60;;;;;;5013445;28;20060;-67
2021/12/05 05:07:25;;;;;;;1.75;0.50;;;4.90;83.60;;;;;;5019007;28;20049;-67
2021/12/05 05:09:52;;;;;;;;;;;4.90;83.60;;;;;;5012595;28;20624;-67
2021/12/05 05:12:20;;;;;;;3.25;0.68;;;4.90;83.70;;;;;;5012303;28;19963;-68
2021/12/05 05:14:47;;;;;;;2.33;0.52;;;4.90;83.60;;;;;;5011338;28;20283;-65
2021/12/05 05:17:14;;;;;;;3.60;0.70;;;4.80;83.60;;;;;;5016910;28;20056;-66
2021/12/05 05:19:47;;;;;;;3.45;0.93;;;4.80;83.60;;;;;;5018784;28;20061;-69
2021/12/05 05:22:25;;;;;;;0.45;0.32;;;4.80;83.40;;;;;;5017144;28;20052;-65
2021/12/05 05:28:00;;;;;;;3.75;1.58;;;4.80;83.20;;;;;;5016696;28;20056;-68
2021/12/05 05:39:23;;;;;;;2.30;0.40;;;4.60;83.00;;;;;;5013976;28;20048;-67
2021/12/05 05:44:55;;;;;;;1.33;0.65;;;4.60;83.00;;;;;;4991746;28;20060;-66
2021/12/05 05:47:29;;;;;;;1.45;0.40;;;4.50;83.00;;;;;;5017001;28;20197;-67
2021/12/05 05:49:58;;;;;;;4.03;0.80;;;4.50;83.00;;;;;;5017769;28;20045;-66
2021/12/05 05:52:28;;;;;;;1.60;0.70;;;4.40;83.00;;;;;;5020343;28;21015;-65
2021/12/05 05:54:57;;;;;;;1.90;0.77;;;4.40;83.00;;;;;;5022574;28;20137;-65
2021/12/05 05:57:29;;;;;;;0.85;0.43;;;4.50;83.00;;;;;;5028357;28;20042;-66
2021/12/05 06:00:03;;;;;;;6.18;0.80;;;4.40;83.00;;;;;;5019962;28;20463;-64
2021/12/05 06:05:25;;;;;;;2.67;0.65;;;4.50;83.10;;;;;;5019951;28;20054;-66
2021/12/05 06:07:53;;;;;;;1.25;0.65;;;4.50;83.00;;;;;;5022746;28;20133;-65
2021/12/05 06:10:23;;;;;;;3.00;0.80;;;4.50;83.10;;;;;;5018085;28;20049;-64
2021/12/05 06:12:50;;;;;;;6.03;1.27;;;4.50;83.30;;;;;;5014211;28;20112;-65
2021/12/05 06:15:20;;;;;;;2.90;1.30;;;4.50;83.40;;;;;;5018018;28;20067;-65
2021/12/05 06:17:47;;;;;;;4.20;0.90;;;4.50;83.50;;;;;;5019608;28;20049;-65
2021/12/05 06:20:17;;;;;;;2.67;0.80;;;4.50;83.50;;;;;;5014764;28;20041;-66
2021/12/05 06:22:45;;;;;;;2.20;0.70;;;4.60;83.50;;;;;;5027650;28;20068;-66
2021/12/05 06:25:20;;;;;;;1.08;0.70;;;4.50;83.50;;;;;;5028569;28;20055;-68
2021/12/05 06:27:47;;;;;;;1.45;0.45;;;4.60;83.60;;;;;;5023483;28;20049;-68
2021/12/05 06:30:19;;;;;;;2.53;0.75;;;4.60;83.70;;;;;;5024561;28;20132;-66
2021/12/05 06:38:41;;;;;;;3.90;1.00;;;4.60;83.80;;;;;;5022570;28;20076;-65
2021/12/05 06:41:19;;;;;;;1.60;0.82;;;4.60;83.70;;;;;;5020965;28;20053;-66
2021/12/05 06:46:34;;;;;;;1.02;0.52;;;4.70;83.90;;;;;;5025095;28;20408;-67
2021/12/05 06:49:01;;;;;;;6.03;1.75;;;4.70;83.90;;;;;;5016382;28;20648;-66
2021/12/05 06:51:32;;;;;;;1.80;0.98;;;4.70;83.90;;;;;;5010909;28;20432;-67
2021/12/05 06:53:59;;;;;;;6.03;0.88;;;4.70;83.90;;;;;;5019547;28;20053;-66
2021/12/05 06:56:27;;;;;;;4.95;1.85;;;4.70;84.00;;;;;;5017639;28;20095;-69
2021/12/05 06:58:55;;;;;;;4.40;1.70;;;4.70;84.10;;;;;;5021181;28;20116;-68
2021/12/05 07:01:22;;;;;;;9.02;2.22;;;4.60;84.30;;;;;;5015740;28;20054;-69
2021/12/05 07:03:50;;;;;;;5.22;1.30;;;4.60;84.30;;;;;;5022549;28;20050;-68
2021/12/05 07:06:22;;;;;;;7.13;2.03;;;4.60;84.40;;;;;;5020279;28;20042;-66
2021/12/05 07:08:51;;;;;;;4.43;1.85;;;4.60;84.30;;;;;;5023013;28;20046;-67
2021/12/05 07:11:23;;;;;;;8.07;1.95;;;4.70;84.30;;;;;;5022860;28;20057;-66
2021/12/05 07:14:19;;;;;;;7.97;1.90;;;4.70;84.30;;;;;;5020014;28;20054;-67
2021/12/05 07:16:52;;;;;;;7.05;2.15;;;4.70;84.50;;;;;;5017645;28;20504;-68
2021/12/05 07:19:29;;;;;;;6.07;2.10;;;4.70;84.40;;;;;;5023480;28;20096;-68
2021/12/05 07:21:59;;;;;;;8.32;2.63;;;4.70;84.40;;;;;;5022502;28;20125;-66
2021/12/05 07:24:38;;;;;;;3.83;1.60;;;4.70;84.40;;;;;;5024472;28;20060;-67
2021/12/05 07:40:19;;;;;;;5.88;1.48;;;4.70;84.40;;;;;;5021768;28;20137;-70
2021/12/05 07:40:55;;;;;;;4.18;1.08;;;4.70;84.70;;;;;;5031202;28;20041;-68
2021/12/05 07:43:22;;;;;;;4.35;1.70;;;4.70;84.60;;;;;;5022019;28;20041;-67
2021/12/05 07:45:55;;;;;;;4.45;1.23;;;4.70;84.70;;;;;;5019783;28;20069;-68
2021/12/05 07:48:31;;;;;;;6.50;1.55;;;4.70;84.70;;;;;;5021739;28;20072;-67
2021/12/05 07:51:08;;;;;;;1.83;0.95;;;4.70;84.70;;;;;;5023895;28;20049;-67
2021/12/05 07:53:45;;;;;;;4.30;1.20;;;4.70;84.90;;;;;;5019347;28;20555;-68
2021/12/05 07:56:17;;;;;;;4.38;1.15;;;4.70;84.90;;;;;;5018334;28;20136;-65
2021/12/05 07:58:56;;;;;;;2.78;1.40;;;4.70;85.00;;;;;;5037735;28;20494;-67
2021/12/05 08:15:13;;;;;;;5.40;2.17;;;4.90;85.20;;;;;;5023057;28;20041;-68
2021/12/05 08:17:49;;;;;;;8.18;2.97;;;4.90;85.10;;;;;;5021546;28;20045;-66
2021/12/05 08:20:16;;;;;;;3.35;1.27;;;4.90;84.90;;;;;;5020060;28;20057;-67
2021/12/05 08:22:43;;;;;;;5.45;1.23;;;4.90;84.80;;;;;;5021604;28;20132;-67
2021/12/05 08:25:12;;;;;;;3.70;1.38;;;4.90;84.90;;;;;;5017222;28;20053;-67
2021/12/05 08:27:43;;;;;;;4.55;0.95;;;4.90;84.80;;;;;;5028158;28;20081;-67
2021/12/05 08:30:14;;;;;;;;;;;4.90;84.80;;;;;;5024395;28;20440;-66
2021/12/05 08:32:56;;;;;;;4.07;1.67;;;5.00;84.90;;;;;;5017675;28;19932;-68
2021/12/05 08:35:44;;;;;;;3.42;1.27;;;5.00;85.00;;;;;;5013374;28;20707;-67
2021/12/05 10:02:13;;;;;;;3.45;1.83;;;5.50;84.90;;;;;;5093333;28;20104;-66
2021/12/05 10:08:05;;;;;;;4.22;1.60;;;5.50;84.70;;;;;;5035148;28;20118;-65
2021/12/05 10:10:40;;;;;;;2.80;0.93;;;5.60;84.60;;;;;;5032930;28;20067;-66
2021/12/05 10:13:16;;;;;;;1.98;0.95;;;5.60;84.50;;;;;;5073904;28;20043;-66
2021/12/05 10:15:57;;;;;;;2.33;1.25;;;5.60;84.70;;;;;;5093542;28;20127;-65
2021/12/05 10:18:50;;;;;;;3.22;1.42;;;5.70;84.60;;;;;;5094875;28;20571;-64
2021/12/05 10:27:21;;;;;;;4.00;2.00;;;5.70;85.20;;;;;;5047568;27;20121;-65
2021/12/05 10:38:27;;;;;;;8.55;2.20;;;5.70;85.10;;;;;;5093379;28;20134;-66
2021/12/05 10:41:01;;;;;;;8.02;1.90;;;5.70;85.10;;;;;;5092432;28;20044;-68
2021/12/05 10:43:33;;;;;;;3.60;1.58;;;5.70;85.10;;;;;;5092988;28;20123;-66
2021/12/05 10:46:07;;;;;;;3.53;1.33;;;5.70;84.80;;;;;;5099266;28;20050;-69
2021/12/05 10:48:37;;;;;;;2.70;1.33;;;5.70;84.80;;;;;;5094180;27;20047;-65
2021/12/05 10:51:06;;;;;;;2.65;1.33;;;5.70;84.90;;;;;;5096611;28;20064;-67
2021/12/05 10:53:39;;;;;;;6.57;1.52;;;5.70;84.90;;;;;;5095208;28;21174;-68
2021/12/05 10:56:14;;;;;;;6.00;1.85;;;5.80;84.90;;;;;;5098891;28;20047;-66
2021/12/05 10:58:47;;;;;;;2.00;1.20;;;5.80;84.80;;;;;;5090338;28;20818;-66
2021/12/05 11:01:19;;;;;;;5.50;2.03;;;5.80;85.00;;;;;;5086963;28;20397;-66
2021/12/05 11:03:52;;;;;;;7.43;2.80;;;5.80;84.90;;;;;;5096923;27;20040;-67
2021/12/05 11:06:26;;;;;;;8.20;2.67;;;5.80;84.90;;;;;;5093930;28;20154;-65
2021/12/05 11:08:56;;;;;;;8.20;2.88;;;5.80;84.90;;;;;;5095409;28;20468;-65
2021/12/05 11:11:23;;;;;;;7.80;3.55;;;5.80;84.90;;;;;;5108665;27;20078;-65
2021/12/05 11:13:52;;;;;;;6.43;3.35;;;5.80;84.90;;;;;;5096126;28;20048;-66
2021/12/05 11:16:42;;;;;;;5.22;2.92;;;5.80;85.00;;;;;;5095930;28;20056;-64
2021/12/05 11:19:12;;;;;;;6.00;2.30;;;5.90;85.00;;;;;;5094955;28;20072;-64
2021/12/05 11:21:50;;;;;;;5.15;2.50;;;5.90;85.10;;;;;;5094069;28;20043;-64
2021/12/05 11:24:26;;;;;;;4.13;2.28;;;5.90;85.00;;;;;;5093386;28;20075;-65
2021/12/05 11:27:13;;;;;;;6.32;1.77;;;6.00;84.80;;;;;;5094210;28;20047;-66
2021/12/05 11:29:49;;;;;;;6.70;2.13;;;6.00;84.90;;;;;;5092250;28;23012;-67
2021/12/05 11:32:18;;;;;;;5.15;1.95;;;6.00;84.80;;;;;;5095676;27;23345;-65
2021/12/05 11:34:46;;;;;;;4.43;2.15;;;6.00;84.80;;;;;;5096186;28;20047;-66
2021/12/05 11:37:13;;;;;;;5.80;2.95;;;6.00;84.70;;;;;;5095627;28;20052;-65
2021/12/05 11:39:40;;;;;;;10.02;2.88;;;6.10;84.70;;;;;;5093271;28;20525;-66
2021/12/05 11:42:20;;;;;;;7.50;2.83;;;6.10;84.60;;;;;;5092892;28;20685;-65
2021/12/05 11:44:54;;;;;;;3.33;1.60;;;6.10;84.70;;;;;;5086419;27;20687;-66
2021/12/05 11:47:23;;;;;;;5.53;2.17;;;6.20;84.80;;;;;;5075598;28;20052;-66
2021/12/05 11:49:50;;;;;;;2.47;1.15;;;6.20;84.70;;;;;;5073262;28;20044;-65
2021/12/05 11:52:24;;;;;;;4.03;1.50;;;6.20;84.70;;;;;;5072268;28;20043;-65
2021/12/05 11:54:51;;;;;;;2.63;1.35;;;6.10;84.70;;;;;;5066102;28;20355;-65
2021/12/05 11:57:21;;;;;;;5.68;2.40;;;6.20;84.60;;;;;;5071315;28;20138;-67
2021/12/05 11:59:52;;;;;;;5.28;2.67;;;6.20;84.40;;;;;;5074028;28;20040;-66
2021/12/05 12:02:24;;;;;;;3.55;1.40;;;6.20;84.20;;;;;;5069390;28;20520;-66
2021/12/05 12:04:56;;;;;;;4.35;1.77;;;6.20;84.10;;;;;;5072464;28;20083;-68
2021/12/05 12:07:32;;;;;;;3.15;1.40;;;6.20;84.00;;;;;;5071621;28;20045;-65
2021/12/05 12:10:05;;;;;;;5.00;1.90;;;6.20;84.00;;;;;;5071311;28;20048;-66
2021/12/05 12:12:34;;;;;;;3.40;1.35;;;6.30;84.00;;;;;;5069901;28;20051;-64
2021/12/05 12:15:04;;;;;;;6.85;1.15;;;6.30;83.80;;;;;;5072766;28;20449;-67
2021/12/05 12:17:31;;;;;;;4.32;1.30;;;6.30;83.60;;;;;;5072918;28;20167;-67
2021/12/05 12:19:58;;;;;;;6.50;1.13;;;6.30;83.60;;;;;;5071479;28;20058;-67
2021/12/05 12:22:27;;;;;;;2.38;1.05;;;6.30;83.60;;;;;;5074543;28;20138;-67
2021/12/05 12:24:56;;;;;;;1.80;0.82;;;6.30;83.40;;;;;;5073269;28;20048;-66
2021/12/05 12:27:24;;;;;;;1.83;0.70;;;6.30;83.30;;;;;;5071261;28;20525;-66
2021/12/05 12:29:52;;;;;;;4.68;0.82;;;6.30;83.20;;;;;;5074416;28;20052;-66
2021/12/05 12:32:25;;;;;;;3.38;0.90;;;6.40;83.20;;;;;;5075296;28;20113;-65
2021/12/05 12:35:00;;;;;;;1.90;0.95;;;6.30;82.80;;;;;;5074025;28;20052;-65
2021/12/05 12:37:27;;;;;;;4.28;0.85;;;6.40;82.70;;;;;;5072131;28;20040;-65
2021/12/05 12:39:54;;;;;;;2.25;0.85;;;6.40;82.80;;;;;;5074910;28;20131;-67
2021/12/05 12:42:25;;;;;;;3.85;1.25;;;6.40;82.80;;;;;;5072275;28;20058;-66
2021/12/05 12:45:07;;;;;;;2.17;1.02;;;6.40;82.50;;;;;;5075802;28;20116;-65
2021/12/05 12:47:38;;;;;;;2.72;1.10;;;6.40;82.60;;;;;;5093278;28;20048;-66
2021/12/05 12:50:29;;;;;;;5.57;1.20;;;6.40;82.80;;;;;;5093671;28;20046;-66
2021/12/05 12:52:59;;;;;;;3.65;1.42;;;6.50;82.50;;;;;;5092175;28;20046;-66
2021/12/05 12:55:31;;;;;;;3.45;0.85;;;6.50;82.60;;;;;;5095002;28;20062;-66
2021/12/05 12:57:58;;;;;;;2.50;0.98;;;6.50;82.70;;;;;;5094642;28;20068;-67
2021/12/05 13:00:29;;;;;;;2.75;1.10;;;6.50;82.80;;;;;;5093312;28;20040;-65
2021/12/05 13:03:00;;;;;;;2.67;0.80;;;6.50;82.90;;;;;;5085500;28;20063;-66
2021/12/05 13:07:14;;;;;;;2.33;0.70;;;6.50;82.70;;;;;;5095614;28;20047;-64
2021/12/05 13:11:20;;;;;;;3.55;1.00;;;6.50;82.40;;;;;;5091669;28;20059;-66
2021/12/05 13:14:00;;;;;;;4.45;1.08;;;6.50;82.20;;;;;;5090703;28;20405;-65
2021/12/05 13:16:34;;;;;;;2.30;1.02;;;6.50;82.00;;;;;;5092794;28;20489;-66
2021/12/05 13:19:10;;;;;;;3.05;0.95;;;6.50;81.90;;;;;;5094372;28;20044;-67
2021/12/05 13:21:41;;;;;;;2.53;1.10;;;6.50;81.90;;;;;;5093626;28;20071;-65
2021/12/05 13:24:27;;;;;;;2.88;0.80;;;6.50;81.90;;;;;;5094784;28;20123;-66
2021/12/05 13:27:01;;;;;;;5.07;0.95;;;6.50;82.10;;;;;;5093771;28;20043;-64
2021/12/05 13:29:32;;;;;;;2.33;1.00;;;6.50;82.10;;;;;;5093698;28;20040;-66
2021/12/05 13:32:07;;;;;;;1.63;0.60;;;6.50;82.00;;;;;;5092790;28;20042;-64
2021/12/05 13:34:45;;;;;;;2.13;0.60;;;6.50;82.00;;;;;;5093672;28;20040;-66
2021/12/05 13:37:29;;;;;;;2.67;0.50;;;6.50;82.00;;;;;;5097956;28;20051;-66
2021/12/05 13:40:16;;;;;;;0.88;0.35;;;6.50;81.90;;;;;;5097736;28;20502;-65
2021/12/05 13:42:48;;;;;;;1.77;0.80;;;6.50;81.90;;;;;;5096448;28;20058;-66
2021/12/05 13:45:41;;;;;;;3.80;0.75;;;6.50;82.00;;;;;;5093678;28;20080;-68
2021/12/05 13:48:20;;;;;;;3.90;0.80;;;6.50;82.00;;;;;;5094921;28;20409;-67
2021/12/05 13:50:51;;;;;;;4.15;0.80;;;6.50;81.90;;;;;;5094688;28;20048;-65
2021/12/05 13:53:51;;;;;;;1.10;0.50;;;6.50;81.70;;;;;;5093506;28;20109;-67
2021/12/05 13:56:26;;;;;;;2.58;0.50;;;6.50;81.70;;;;;;5064525;28;20048;-65
2021/12/05 13:58:56;;;;;;;2.10;0.70;;;6.50;81.60;;;;;;5102304;27;20103;-66
2021/12/05 14:01:29;;;;;;;3.80;0.88;;;6.50;81.80;;;;;;5093268;28;20063;-66
2021/12/05 14:04:25;;;;;;;1.65;0.52;;;6.50;81.90;;;;;;5096851;28;20048;-67
2021/12/05 14:06:57;;;;;;;2.05;0.60;;;6.50;82.00;;;;;;5094129;28;20058;-67
2021/12/05 14:09:28;;;;;;;2.28;0.63;;;6.50;81.90;;;;;;5095825;28;20492;-65
2021/12/05 14:11:59;;;;;;;1.98;0.90;;;6.50;81.80;;;;;;5097292;28;20134;-66
2021/12/05 14:14:28;;;;;;;3.95;1.00;;;6.50;81.90;;;;;;5095380;27;20075;-65
2021/12/05 14:16:58;;;;;;;3.53;1.10;;;6.60;81.60;;;;;;5098652;28;20055;-65
2021/12/05 14:19:29;;;;;;;1.97;0.87;;;6.60;81.50;;;;;;5097329;27;20047;-66
2021/12/05 14:21:58;;;;;;;;;;;6.60;81.50;;;;;;5095733;28;20796;-65
2021/12/05 14:24:29;;;;;;;2.53;0.90;;;6.60;81.60;;;;;;5096450;28;20124;-65
2021/12/05 14:26:59;;;;;;;1.58;0.80;;;6.60;81.80;;;;;;5097449;28;20054;-65
2021/12/05 14:29:27;;;;;;;1.30;0.90;;;6.50;82.00;;;;;;5096805;28;20515;-65
2021/12/05 14:31:58;;;;;;;2.70;1.08;;;6.50;82.10;;;;;;5098666;28;20481;-66
2021/12/05 14:34:25;;;;;;;;;;;6.40;82.20;;;;;;5095319;28;20055;-64
2021/12/05 14:36:55;;;;;;;2.28;1.05;;;6.40;82.40;;;;;;5095636;28;19919;-64
2021/12/05 14:39:28;;;;;;;2.97;0.88;;;6.40;82.50;;;;;;5087071;28;20104;-66
2021/12/05 14:41:59;;;;;;;2.20;1.00;;;6.40;82.60;;;;;;5098845;28;20079;-65
2021/12/05 14:44:28;;;;;;;2.30;1.10;;;6.40;82.80;;;;;;5095976;28;20047;-64
2021/12/05 14:46:59;;;;;;;4.85;1.70;;;6.40;82.70;;;;;;5096732;27;20039;-66
2021/12/05 14:49:29;;;;;;;2.65;1.10;;;6.40;82.80;;;;;;5097567;28;20048;-65
2021/12/05 14:52:01;;;;;;;6.18;1.80;;;6.40;82.90;;;;;;5096731;28;20130;-64
2021/12/05 14:54:35;;;;;;;8.90;2.30;;;6.30;82.90;;;;;;5098798;28;20047;-65
2021/12/05 14:57:07;;;;;;;7.43;2.17;;;6.40;82.90;;;;;;5096384;28;20112;-66
2021/12/05 14:59:34;;;;;;;5.28;2.33;;;6.30;82.90;;;;;;5097764;28;20096;-66
2021/12/05 15:02:04;;;;;;;4.35;2.10;;;6.30;83.00;;;;;;5089628;27;20532;-64
2021/12/05 15:04:37;;;;;;;5.43;2.17;;;6.30;83.00;;;;;;5102359;27;20048;-65
2021/12/05 15:07:07;;;;;;;5.00;1.95;;;6.30;83.20;;;;;;5096277;28;20138;-65
2021/12/05 15:09:37;;;;;;;;;;;6.30;83.20;;;;;;5079137;28;20051;-65
2021/12/05 15:12:18;;;;;;;5.65;1.80;;;6.30;83.10;;;;;;5094811;28;19923;-65
2021/12/05 15:14:47;;;;;;;3.92;1.55;;;6.30;83.30;;;;;;5098379;28;20093;-66
2021/12/05 15:17:28;;;;;;;3.63;1.52;;;6.20;83.30;;;;;;5083779;28;20044;-65
2021/12/05 15:19:57;;;;;;;2.88;1.60;;;6.20;83.40;;;;;;5103737;27;20482;-66
2021/12/05 15:22:29;;;;;;;5.55;1.38;;;6.20;83.40;;;;;;5097713;27;20053;-64
2021/12/05 15:25:04;;;;;;;3.50;1.27;;;6.20;83.50;;;;;;5098882;27;20270;-66
2021/12/05 15:27:33;;;;;;;2.83;1.30;;;6.20;83.50;;;;;;5091021;28;20120;-65
2021/12/05 15:30:07;;;;;;;5.35;1.42;;;6.20;83.70;;;;;;5099944;28;20734;-65
2021/12/05 15:32:35;;;;;;;4.88;1.85;;;6.10;83.70;;;;;;5098605;28;20077;-67
2021/12/05 15:35:05;;;;;;;5.43;1.48;;;6.10;83.70;;;;;;5098782;27;20040;-64
2021/12/05 15:37:33;;;;;;;2.92;1.38;;;6.10;83.70;;;;;;5096068;28;20135;-65
2021/12/05 15:40:04;;;;;;;5.80;1.10;;;6.20;83.50;;;;;;5098621;28;20115;-68
2021/12/05 15:42:37;;;;;;;3.30;1.30;;;6.10;83.50;;;;;;5099415;27;20035;-68
2021/12/05 15:45:08;;;;;;;4.00;1.35;;;6.10;83.50;;;;;;5099430;28;20139;-66
2021/12/05 15:47:37;;;;;;;3.42;1.48;;;6.00;83.50;;;;;;5099128;28;20540;-67
2021/12/05 15:50:10;;;;;;;5.28;1.40;;;6.00;83.40;;;;;;5100084;28;20588;-65
2021/12/05 15:52:40;;;;;;;4.35;1.60;;;5.90;83.40;;;;;;5098551;28;20054;-65
2021/12/05 15:55:13;;;;;;;4.45;2.00;;;5.90;83.40;;;;;;5100026;28;20063;-65
2021/12/05 15:57:44;;;;;;;2.47;1.35;;;5.90;83.30;;;;;;5100179;28;20131;-64
2021/12/05 16:00:16;;;;;;;5.80;1.98;;;5.80;83.20;;;;;;5097737;28;20130;-68
2021/12/05 16:02:47;;;;;;;4.20;1.98;;;5.70;83.10;;;;;;5101063;28;20052;-65
2021/12/05 16:05:16;;;;;;;3.25;1.40;;;5.70;83.00;;;;;;5101394;28;20056;-65
2021/12/05 16:07:43;;;;;;;3.70;1.90;;;5.70;82.80;;;;;;5100690;28;20122;-65
2021/12/05 16:10:17;;;;;;;4.47;1.85;;;5.60;82.80;;;;;;5100593;28;20727;-66
2021/12/05 16:12:48;;;;;;;8.02;2.38;;;5.60;82.70;;;;;;5100683;28;20130;-67
2021/12/05 16:15:17;;;;;;;6.88;2.88;;;5.50;82.80;;;;;;5097618;28;20134;-66
2021/12/05 16:17:56;;;;;;;3.72;1.90;;;5.50;82.90;;;;;;5099404;28;20048;-65
2021/12/05 16:20:26;;;;;;;5.50;1.98;;;5.40;82.90;;;;;;5101452;28;20544;-67
2021/12/05 16:23:22;;;;;;;5.67;2.10;;;5.40;82.90;;;;;;5104657;28;20048;-65
2021/12/05 16:26:02;;;;;;;5.57;2.22;;;5.40;83.00;;;;;;5097154;28;20048;-67
2021/12/05 16:28:35;;;;;;;5.32;2.78;;;5.40;83.10;;;;;;5097010;28;20451;-66
2021/12/05 16:31:07;;;;;;;3.53;1.52;;;5.40;83.20;;;;;;5094968;28;20067;-66
2021/12/05 16:33:34;;;;;;;5.32;1.60;;;5.40;83.30;;;;;;5093501;28;20051;-65
2021/12/05 16:36:02;;;;;;;4.78;2.10;;;5.40;83.50;;;;;;5094623;28;20067;-63
2021/12/05 16:38:33;;;;;;;7.47;3.40;;;5.40;83.60;;;;;;5088671;28;20052;-66
2021/12/05 16:41:06;;;;;;;4.82;2.47;;;5.40;83.70;;;;;;5090359;28;20539;-65
2021/12/05 16:43:36;;;;;;;6.40;2.70;;;5.40;83.90;;;;;;5093460;28;20063;-66
2021/12/05 16:46:15;;;;;;;6.22;3.20;;;5.40;83.90;;;;;;5097892;28;20085;-67
2021/12/05 16:48:44;;;;;;;5.72;2.97;;;5.40;84.00;;;;;;5096297;28;20052;-65
2021/12/05 16:51:18;;;;;;;7.55;3.13;;;5.40;84.00;;;;;;5097514;28;20043;-65
2021/12/05 16:53:47;;;;;;;5.40;2.58;;;5.40;84.10;;;;;;5093864;28;20044;-66
2021/12/05 16:56:33;;;;;;;7.13;3.13;;;5.40;84.20;;;;;;5090763;28;20159;-64
2021/12/05 16:59:06;;;;;;;5.60;3.60;;;5.40;84.30;;;;;;5092088;28;20469;-67
2021/12/05 17:01:33;;;;;;;7.13;3.47;;;5.40;84.20;;;;;;5092770;28;20046;-67
2021/12/05 17:04:00;;;;;;;5.95;3.35;;;5.40;84.30;;;;;;5094777;28;20641;-65
2021/12/05 17:06:47;;;;;;;6.25;3.20;;;5.50;84.30;;;;;;5093890;28;20183;-65
2021/12/05 17:09:15;;;;;;;7.47;3.60;;;5.40;84.30;;;;;;5096420;28;20113;-67
2021/12/05 17:11:44;;;;;;;6.47;3.50;;;5.50;84.30;;;;;;5098373;27;20043;-69
2021/12/05 17:14:26;;;;;;;7.15;3.78;;;5.40;84.30;;;;;;5097087;27;20054;-65
2021/12/05 17:16:55;;;;;;;9.02;4.32;;;5.50;84.30;;;;;;5098362;27;20093;-67
2021/12/05 17:19:27;;;;;;;10.30;4.70;;;5.50;84.30;;;;;;5102593;27;20043;-66
2021/12/05 17:21:55;;;;;;;9.57;4.53;;;5.50;84.40;;;;;;5097196;28;20139;-66
2021/12/05 17:24:26;;;;;;;11.30;5.60;;;5.50;84.50;;;;;;5094095;28;20047;-66